sensor_id;sensor_type;location;lat;lon;timestamp;pressure;altitude;pressure_sealevel;temperature;humidity
34370;BME280;20635;55.812;37.560;2023-05-23T00:01:53;99854.19;;;24.40;51.35
34370;BME280;20635;55.812;37.560;2023-05-23T00:04:19;99858.66;;;24.41;51.21
34370;BME280;20635;55.812;37.560;2023-05-23T00:06:45;99850.25;;;24.41;51.52
34370;BME280;20635;55.812;37.560;2023-05-23T00:09:12;99856.66;;;24.41;51.35
34370;BME280;20635;55.812;37.560;2023-05-23T00:11:38;99855.03;;;24.40;51.35
34370;BME280;20635;55.812;37.560;2023-05-23T00:14:12;99855.03;;;24.40;51.49
34370;BME280;20635;55.812;37.560;2023-05-23T00:16:42;99845.78;;;24.40;51.16
34370;BME280;20635;55.812;37.560;2023-05-23T00:19:12;99850.56;;;24.39;51.45
34370;BME280;20635;55.812;37.560;2023-05-23T00:21:41;99854.19;;;24.40;51.36
34370;BME280;20635;55.812;37.560;2023-05-23T00:24:08;99856.19;;;24.39;51.27
34370;BME280;20635;55.812;37.560;2023-05-23T00:26:35;99852.53;;;24.39;51.20
34370;BME280;20635;55.812;37.560;2023-05-23T00:29:00;99848.91;;;24.38;51.25
34370;BME280;20635;55.812;37.560;2023-05-23T00:31:26;99856.19;;;24.39;51.27
34370;BME280;20635;55.812;37.560;2023-05-23T00:33:52;99852.53;;;24.39;51.28
34370;BME280;20635;55.812;37.560;2023-05-23T00:36:18;99854.50;;;24.38;51.32
34370;BME280;20635;55.812;37.560;2023-05-23T00:38:43;99852.53;;;24.39;50.99
34370;BME280;20635;55.812;37.560;2023-05-23T00:41:12;99857.31;;;24.38;50.98
34370;BME280;20635;55.812;37.560;2023-05-23T00:43:38;99853.69;;;24.38;51.24
34370;BME280;20635;55.812;37.560;2023-05-23T00:46:04;99847.25;;;24.37;51.07
34370;BME280;20635;55.812;37.560;2023-05-23T00:48:29;99856.19;;;24.39;51.11
34370;BME280;20635;55.812;37.560;2023-05-23T00:50:56;99849.22;;;24.37;51.26
34370;BME280;20635;55.812;37.560;2023-05-23T00:53:21;99850.06;;;24.37;51.11
34370;BME280;20635;55.812;37.560;2023-05-23T00:55:47;99853.97;;;24.36;51.05
34370;BME280;20635;55.812;37.560;2023-05-23T00:58:13;99848.38;;;24.36;50.87
34370;BME280;20635;55.812;37.560;2023-05-23T01:00:41;99857.63;;;24.37;51.21
34370;BME280;20635;55.812;37.560;2023-05-23T01:03:09;99850.34;;;24.36;51.27
34370;BME280;20635;55.812;37.560;2023-05-23T01:05:44;99852.84;;;24.37;50.83
34370;BME280;20635;55.812;37.560;2023-05-23T01:08:10;99846.72;;;24.35;51.22
34370;BME280;20635;55.812;37.560;2023-05-23T01:10:36;99837.50;;;24.35;50.98
34370;BME280;20635;55.812;37.560;2023-05-23T01:15:29;99845.56;;;24.36;50.80
34370;BME280;20635;55.812;37.560;2023-05-23T01:18:09;99836.34;;;24.36;50.97
34370;BME280;20635;55.812;37.560;2023-05-23T01:26:02;99833.84;;;24.34;50.88
34370;BME280;20635;55.812;37.560;2023-05-23T01:28:30;99829.09;;;24.35;50.95
34370;BME280;20635;55.812;37.560;2023-05-23T01:30:57;99831.06;;;24.34;50.82
34370;BME280;20635;55.812;37.560;2023-05-23T01:33:23;99828.25;;;24.34;50.97
34370;BME280;20635;55.812;37.560;2023-05-23T01:35:49;99832.72;;;24.35;50.99
34370;BME280;20635;55.812;37.560;2023-05-23T01:38:15;99830.22;;;24.34;50.93
34370;BME280;20635;55.812;37.560;2023-05-23T01:40:41;99831.06;;;24.34;50.81
34370;BME280;20635;55.812;37.560;2023-05-23T01:43:08;99831.06;;;24.34;50.97
34370;BME280;20635;55.812;37.560;2023-05-23T01:45:35;99832.19;;;24.33;50.62
34370;BME280;20635;55.812;37.560;2023-05-23T01:48:01;99833.84;;;24.34;50.73
34370;BME280;20635;55.812;37.560;2023-05-23T01:50:28;99847.03;;;24.34;50.90
34370;BME280;20635;55.812;37.560;2023-05-23T01:52:54;99841.13;;;24.35;50.72
34370;BME280;20635;55.812;37.560;2023-05-23T01:55:21;99832.19;;;24.33;50.61
34370;BME280;20635;55.812;37.560;2023-05-23T01:57:50;99829.41;;;24.33;50.72
34370;BME280;20635;55.812;37.560;2023-05-23T02:00:18;99823.81;;;24.33;50.59
34370;BME280;20635;55.812;37.560;2023-05-23T02:02:46;99821.81;;;24.34;50.90
34370;BME280;20635;55.812;37.560;2023-05-23T02:05:12;99821.00;;;24.33;50.64
34370;BME280;20635;55.812;37.560;2023-05-23T02:07:37;99826.59;;;24.33;50.55
34370;BME280;20635;55.812;37.560;2023-05-23T02:10:05;99826.59;;;24.33;50.71
34370;BME280;20635;55.812;37.560;2023-05-23T02:12:30;99825.44;;;24.34;50.67
34370;BME280;20635;55.812;37.560;2023-05-23T02:14:57;99823.81;;;24.33;50.69
34370;BME280;20635;55.812;37.560;2023-05-23T02:17:23;99829.41;;;24.33;50.74
34370;BME280;20635;55.812;37.560;2023-05-23T02:19:48;99819.34;;;24.32;50.58
34370;BME280;20635;55.812;37.560;2023-05-23T02:22:14;99807.00;;;24.33;50.55
34370;BME280;20635;55.812;37.560;2023-05-23T02:24:40;99820.19;;;24.33;50.67
34370;BME280;20635;55.812;37.560;2023-05-23T02:27:05;99825.78;;;24.33;50.76
34370;BME280;20635;55.812;37.560;2023-05-23T02:29:31;99828.59;;;24.33;50.56
34370;BME280;20635;55.812;37.560;2023-05-23T02:31:57;99816.22;;;24.34;50.63
34370;BME280;20635;55.812;37.560;2023-05-23T02:34:23;99815.41;;;24.33;50.62
34370;BME280;20635;55.812;37.560;2023-05-23T02:36:48;99818.19;;;24.33;50.61
34370;BME280;20635;55.812;37.560;2023-05-23T02:39:16;99807.00;;;24.33;50.38
34370;BME280;20635;55.812;37.560;2023-05-23T02:41:43;99802.56;;;24.32;50.58
34370;BME280;20635;55.812;37.560;2023-05-23T02:44:09;99801.41;;;24.33;50.51
34370;BME280;20635;55.812;37.560;2023-05-23T02:46:35;99821.81;;;24.34;50.49
34370;BME280;20635;55.812;37.560;2023-05-23T02:49:02;99819.34;;;24.32;50.32
34370;BME280;20635;55.812;37.560;2023-05-23T02:51:27;99821.34;;;24.32;50.72
34370;BME280;20635;55.812;37.560;2023-05-23T02:53:53;99810.94;;;24.32;50.44
34370;BME280;20635;55.812;37.560;2023-05-23T02:56:19;99809.31;;;24.31;50.59
34370;BME280;20635;55.812;37.560;2023-05-23T02:58:46;99801.72;;;24.32;50.43
34370;BME280;20635;55.812;37.560;2023-05-23T03:01:12;99812.13;;;24.31;50.27
34370;BME280;20635;55.812;37.560;2023-05-23T03:03:38;99823.31;;;24.31;50.39
34370;BME280;20635;55.812;37.560;2023-05-23T03:06:06;99815.72;;;24.32;50.51
34370;BME280;20635;55.812;37.560;2023-05-23T03:08:31;99818.53;;;24.32;50.54
34370;BME280;20635;55.812;37.560;2023-05-23T03:10:57;99828.91;;;24.31;50.22
34370;BME280;20635;55.812;37.560;2023-05-23T03:13:23;99826.94;;;24.32;50.46
34370;BME280;20635;55.812;37.560;2023-05-23T03:15:49;99832.53;;;24.32;50.24
34370;BME280;20635;55.812;37.560;2023-05-23T03:18:14;99829.75;;;24.32;50.24
34370;BME280;20635;55.812;37.560;2023-05-23T03:20:40;99824.97;;;24.32;50.25
34370;BME280;20635;55.812;37.560;2023-05-23T03:23:06;99829.75;;;24.32;50.53
34370;BME280;20635;55.812;37.560;2023-05-23T03:25:32;99830.56;;;24.32;50.18
34370;BME280;20635;55.812;37.560;2023-05-23T03:27:58;99819.69;;;24.30;50.17
34370;BME280;20635;55.812;37.560;2023-05-23T03:30:23;99811.28;;;24.30;50.47
34370;BME280;20635;55.812;37.560;2023-05-23T03:32:49;99812.13;;;24.31;50.27
34370;BME280;20635;55.812;37.560;2023-05-23T03:35:15;99812.41;;;24.29;50.34
34370;BME280;20635;55.812;37.560;2023-05-23T03:37:41;99817.19;;;24.29;50.19
34370;BME280;20635;55.812;37.560;2023-05-23T03:40:07;99813.56;;;24.28;50.35
34370;BME280;20635;55.812;37.560;2023-05-23T03:42:33;99817.19;;;24.29;50.14
34370;BME280;20635;55.812;37.560;2023-05-23T03:44:59;99813.56;;;24.28;50.25
34370;BME280;20635;55.812;37.560;2023-05-23T03:47:25;99812.75;;;24.28;50.32
34370;BME280;20635;55.812;37.560;2023-05-23T03:49:51;99811.91;;;24.27;50.31
34370;BME280;20635;55.812;37.560;2023-05-23T03:52:17;99817.53;;;24.27;50.19
34370;BME280;20635;55.812;37.560;2023-05-23T03:54:43;99813.91;;;24.27;50.14
34370;BME280;20635;55.812;37.560;2023-05-23T03:57:09;99808.31;;;24.27;50.29
34370;BME280;20635;55.812;37.560;2023-05-23T03:59:36;99810.28;;;24.26;50.19
34370;BME280;20635;55.812;37.560;2023-05-23T04:02:05;99808.63;;;24.25;50.37
34370;BME280;20635;55.812;37.560;2023-05-23T04:04:31;99806.66;;;24.26;50.19
34370;BME280;20635;55.812;37.560;2023-05-23T04:06:58;99794.63;;;24.25;50.14
34370;BME280;20635;55.812;37.560;2023-05-23T04:09:23;99794.63;;;24.25;50.06
34370;BME280;20635;55.812;37.560;2023-05-23T04:11:50;99808.13;;;24.23;50.15
34370;BME280;20635;55.812;37.560;2023-05-23T04:14:17;99811.75;;;24.24;49.93
34370;BME280;20635;55.812;37.560;2023-05-23T04:16:47;99816.50;;;24.23;50.08
34370;BME280;20635;55.812;37.560;2023-05-23T04:19:13;99808.75;;;24.20;49.93
34370;BME280;20635;55.812;37.560;2023-05-23T04:21:39;99803.97;;;24.21;49.87
34370;BME280;20635;55.812;37.560;2023-05-23T04:24:08;99799.53;;;24.20;49.80
34370;BME280;20635;55.812;37.560;2023-05-23T04:26:33;99804.31;;;24.19;50.01
34370;BME280;20635;55.812;37.560;2023-05-23T04:29:04;99799.84;;;24.18;50.00
34370;BME280;20635;55.812;37.560;2023-05-23T04:31:31;99801.84;;;24.18;49.83
34370;BME280;20635;55.812;37.560;2023-05-23T04:33:58;99801.84;;;24.18;49.91
34370;BME280;20635;55.812;37.560;2023-05-23T04:36:25;99800.19;;;24.17;49.89
34370;BME280;20635;55.812;37.560;2023-05-23T04:38:53;99796.53;;;24.16;49.82
34370;BME280;20635;55.812;37.560;2023-05-23T04:41:20;99804.94;;;24.16;49.95
34370;BME280;20635;55.812;37.560;2023-05-23T04:44:15;99796.88;;;24.15;49.89
34370;BME280;20635;55.812;37.560;2023-05-23T04:46:47;99795.22;;;24.14;49.70
34370;BME280;20635;55.812;37.560;2023-05-23T04:49:22;99790.78;;;24.13;49.66
34370;BME280;20635;55.812;37.560;2023-05-23T04:51:48;99794.69;;;24.12;49.79
34370;BME280;20635;55.812;37.560;2023-05-23T04:54:31;99800.31;;;24.12;49.64
34370;BME280;20635;55.812;37.560;2023-05-23T04:57:00;99798.66;;;24.11;49.82
34370;BME280;20635;55.812;37.560;2023-05-23T04:59:28;99797.00;;;24.10;49.88
34370;BME280;20635;55.812;37.560;2023-05-23T05:01:53;99805.41;;;24.10;49.72
34370;BME280;20635;55.812;37.560;2023-05-23T05:04:19;99797.00;;;24.10;49.57
34370;BME280;20635;55.812;37.560;2023-05-23T05:06:47;99801.78;;;24.09;49.79
34370;BME280;20635;55.812;37.560;2023-05-23T05:09:13;99808.53;;;24.08;49.68
34370;BME280;20635;55.812;37.560;2023-05-23T05:11:40;99815.25;;;24.07;49.62
34370;BME280;20635;55.812;37.560;2023-05-23T05:14:06;99820.84;;;24.07;49.55
34370;BME280;20635;55.812;37.560;2023-05-23T05:16:33;99829.25;;;24.07;49.51
34370;BME280;20635;55.812;37.560;2023-05-23T05:18:59;99823.16;;;24.05;49.76
34370;BME280;20635;55.812;37.560;2023-05-23T05:21:25;99831.56;;;24.05;49.81
34370;BME280;20635;55.812;37.560;2023-05-23T05:23:51;99839.16;;;24.04;49.61
34370;BME280;20635;55.812;37.560;2023-05-23T05:26:17;99836.34;;;24.04;49.65
34370;BME280;20635;55.812;37.560;2023-05-23T05:28:43;99826.28;;;24.03;49.60
34370;BME280;20635;55.812;37.560;2023-05-23T05:31:08;99838.31;;;24.04;49.60
34370;BME280;20635;55.812;37.560;2023-05-23T05:33:35;99834.69;;;24.03;49.40
34370;BME280;20635;55.812;37.560;2023-05-23T05:36:11;99828.28;;;24.03;49.40
34370;BME280;20635;55.812;37.560;2023-05-23T05:38:37;99828.56;;;24.01;49.65
34370;BME280;20635;55.812;37.560;2023-05-23T05:41:03;99819.03;;;24.02;49.75
34370;BME280;20635;55.812;37.560;2023-05-23T05:43:33;99820.19;;;24.01;49.76
34370;BME280;20635;55.812;37.560;2023-05-23T05:45:59;99825.78;;;24.01;49.33
34370;BME280;20635;55.812;37.560;2023-05-23T05:48:24;99816.56;;;24.01;49.32
34370;BME280;20635;55.812;37.560;2023-05-23T05:50:52;99826.09;;;24.00;49.51
34370;BME280;20635;55.812;37.560;2023-05-23T05:53:18;99821.34;;;24.00;49.55
34370;BME280;20635;55.812;37.560;2023-05-23T05:55:44;99817.72;;;24.00;49.52
34370;BME280;20635;55.812;37.560;2023-05-23T05:58:10;99813.25;;;23.99;49.28
34370;BME280;20635;55.812;37.560;2023-05-23T06:00:48;99823.63;;;23.98;49.30
34370;BME280;20635;55.812;37.560;2023-05-23T06:03:14;99820.84;;;23.98;49.43
34370;BME280;20635;55.812;37.560;2023-05-23T06:05:55;99823.63;;;23.98;49.58
34370;BME280;20635;55.812;37.560;2023-05-23T06:08:21;99809.94;;;23.97;49.34
34370;BME280;20635;55.812;37.560;2023-05-23T06:10:47;99813.56;;;23.97;49.36
34370;BME280;20635;55.812;37.560;2023-05-23T06:13:13;99811.91;;;23.96;49.49
34370;BME280;20635;55.812;37.560;2023-05-23T06:15:41;99806.31;;;23.96;49.36
34370;BME280;20635;55.812;37.560;2023-05-23T06:18:07;99806.31;;;23.96;49.31
34370;BME280;20635;55.812;37.560;2023-05-23T06:20:34;99799.91;;;23.96;49.44
34370;BME280;20635;55.812;37.560;2023-05-23T06:23:03;99803.53;;;23.96;49.16
34370;BME280;20635;55.812;37.560;2023-05-23T06:25:30;99794.31;;;23.96;49.29
34370;BME280;20635;55.812;37.560;2023-05-23T06:27:55;99795.13;;;23.96;49.46
34370;BME280;20635;55.812;37.560;2023-05-23T06:30:22;99791.50;;;23.96;49.25
34370;BME280;20635;55.812;37.560;2023-05-23T06:32:48;99787.88;;;23.95;48.99
34370;BME280;20635;55.812;37.560;2023-05-23T06:35:14;99788.69;;;23.96;49.15
34370;BME280;20635;55.812;37.560;2023-05-23T06:37:40;99787.88;;;23.95;49.16
34370;BME280;20635;55.812;37.560;2023-05-23T06:40:12;99783.44;;;23.94;49.04
34370;BME280;20635;55.812;37.560;2023-05-23T06:42:39;99779.47;;;23.95;49.31
34370;BME280;20635;55.812;37.560;2023-05-23T06:45:16;99777.03;;;23.94;49.23
34370;BME280;20635;55.812;37.560;2023-05-23T06:47:42;99772.25;;;23.94;49.12
34370;BME280;20635;55.812;37.560;2023-05-23T06:50:10;99772.25;;;23.94;49.29
34370;BME280;20635;55.812;37.560;2023-05-23T06:52:36;99770.56;;;23.93;49.02
34370;BME280;20635;55.812;37.560;2023-05-23T06:55:02;99777.84;;;23.94;49.10
34370;BME280;20635;55.812;37.560;2023-05-23T06:57:28;99768.63;;;23.94;49.27
34370;BME280;20635;55.812;37.560;2023-05-23T06:59:53;99768.63;;;23.94;49.35
34370;BME280;20635;55.812;37.560;2023-05-23T07:02:19;99765.50;;;23.95;48.93
34370;BME280;20635;55.812;37.560;2023-05-23T07:04:45;99765.81;;;23.94;48.99
34370;BME280;20635;55.812;37.560;2023-05-23T07:07:17;99755.44;;;23.94;48.89
34370;BME280;20635;55.812;37.560;2023-05-23T07:09:43;99751.50;;;23.95;49.04
34370;BME280;20635;55.812;37.560;2023-05-23T07:12:14;99751.50;;;23.95;49.13
34370;BME280;20635;55.812;37.560;2023-05-23T07:14:42;99752.66;;;23.94;49.00
34370;BME280;20635;55.812;37.560;2023-05-23T07:17:09;99745.06;;;23.95;49.08
34370;BME280;20635;55.812;37.560;2023-05-23T07:19:35;99738.66;;;23.94;48.99
34370;BME280;20635;55.812;37.560;2023-05-23T07:22:00;99744.25;;;23.94;48.87
34370;BME280;20635;55.812;37.560;2023-05-23T07:24:28;99745.06;;;23.95;48.87
34370;BME280;20635;55.812;37.560;2023-05-23T07:26:55;99747.88;;;23.95;49.10
34370;BME280;20635;55.812;37.560;2023-05-23T07:29:23;99753.13;;;23.96;49.04
34370;BME280;20635;55.812;37.560;2023-05-23T07:31:51;99741.13;;;23.96;49.18
34370;BME280;20635;55.812;37.560;2023-05-23T07:34:19;99739.13;;;23.96;48.88
34370;BME280;20635;55.812;37.560;2023-05-23T07:37:02;99752.31;;;23.96;48.91
34370;BME280;20635;55.812;37.560;2023-05-23T07:39:36;99743.09;;;23.95;49.02
34370;BME280;20635;55.812;37.560;2023-05-23T07:42:02;99740.31;;;23.95;48.95
34370;BME280;20635;55.812;37.560;2023-05-23T07:44:28;99741.94;;;23.96;48.93
34370;BME280;20635;55.812;37.560;2023-05-23T07:46:54;99743.91;;;23.96;48.88
34370;BME280;20635;55.812;37.560;2023-05-23T07:49:20;99743.09;;;23.95;48.83
34370;BME280;20635;55.812;37.560;2023-05-23T07:51:46;99755.94;;;23.96;48.83
34370;BME280;20635;55.812;37.560;2023-05-23T07:54:12;99747.53;;;23.96;49.10
34370;BME280;20635;55.812;37.560;2023-05-23T07:56:41;99763.19;;;23.97;48.71
34370;BME280;20635;55.812;37.560;2023-05-23T07:59:07;99753.13;;;23.96;48.67
34370;BME280;20635;55.812;37.560;2023-05-23T08:01:33;99755.94;;;23.96;48.85
34370;BME280;20635;55.812;37.560;2023-05-23T08:04:05;99755.94;;;23.96;48.81
34370;BME280;20635;55.812;37.560;2023-05-23T08:06:36;99759.56;;;23.97;48.86
34370;BME280;20635;55.812;37.560;2023-05-23T08:09:06;99763.19;;;23.97;48.82
34370;BME280;20635;55.812;37.560;2023-05-23T08:11:34;99765.97;;;23.97;48.82
34370;BME280;20635;55.812;37.560;2023-05-23T08:14:00;99759.56;;;23.97;48.71
34370;BME280;20635;55.812;37.560;2023-05-23T08:16:38;99763.19;;;23.97;48.68
34370;BME280;20635;55.812;37.560;2023-05-23T08:19:09;99749.19;;;23.97;48.70
34370;BME280;20635;55.812;37.560;2023-05-23T08:21:36;99757.59;;;23.97;48.59
34370;BME280;20635;55.812;37.560;2023-05-23T08:24:02;99757.59;;;23.97;48.56
34370;BME280;20635;55.812;37.560;2023-05-23T08:26:29;99750.00;;;23.98;48.74
34370;BME280;20635;55.812;37.560;2023-05-23T08:29:00;99748.06;;;23.98;48.62
34370;BME280;20635;55.812;37.560;2023-05-23T08:31:27;99744.41;;;23.98;48.52
34370;BME280;20635;55.812;37.560;2023-05-23T08:33:54;99746.09;;;23.99;48.81
34370;BME280;20635;55.812;37.560;2023-05-23T08:36:20;99754.47;;;23.99;48.77
34370;BME280;20635;55.812;37.560;2023-05-23T08:38:46;99748.06;;;23.98;48.73
34370;BME280;20635;55.812;37.560;2023-05-23T08:41:20;99751.69;;;23.99;48.60
34370;BME280;20635;55.812;37.560;2023-05-23T08:43:49;99741.31;;;23.99;48.47
34370;BME280;20635;55.812;37.560;2023-05-23T08:46:21;99748.56;;;24.00;48.82
34370;BME280;20635;55.812;37.560;2023-05-23T08:48:49;99746.91;;;23.99;48.73
34370;BME280;20635;55.812;37.560;2023-05-23T08:51:16;99742.13;;;24.00;48.40
34370;BME280;20635;55.812;37.560;2023-05-23T08:53:42;99746.56;;;24.01;48.42
34370;BME280;20635;55.812;37.560;2023-05-23T08:56:14;99735.38;;;24.01;48.56
34370;BME280;20635;55.812;37.560;2023-05-23T08:58:43;99737.34;;;24.00;48.58
34370;BME280;20635;55.812;37.560;2023-05-23T09:01:12;99735.38;;;24.01;48.50
34370;BME280;20635;55.812;37.560;2023-05-23T09:03:39;99747.41;;;24.01;48.50
34370;BME280;20635;55.812;37.560;2023-05-23T09:06:28;99738.19;;;24.01;48.46
34370;BME280;20635;55.812;37.560;2023-05-23T09:08:55;99741.81;;;24.01;48.35
34370;BME280;20635;55.812;37.560;2023-05-23T09:11:22;99743.78;;;24.01;48.45
34370;BME280;20635;55.812;37.560;2023-05-23T09:13:49;99746.56;;;24.01;48.42
34370;BME280;20635;55.812;37.560;2023-05-23T09:16:16;99745.41;;;24.02;48.55
34370;BME280;20635;55.812;37.560;2023-05-23T09:18:47;99750.19;;;24.01;48.52
34370;BME280;20635;55.812;37.560;2023-05-23T09:21:15;99755.78;;;24.01;48.31
34370;BME280;20635;55.812;37.560;2023-05-23T09:23:50;99756.63;;;24.02;48.34
34370;BME280;20635;55.812;37.560;2023-05-23T09:26:16;99755.50;;;24.03;48.66
34370;BME280;20635;55.812;37.560;2023-05-23T09:28:42;99772.28;;;24.03;48.50
34370;BME280;20635;55.812;37.560;2023-05-23T09:31:09;99772.28;;;24.03;48.24
34370;BME280;20635;55.812;37.560;2023-05-23T09:33:48;99766.69;;;24.03;48.27
34370;BME280;20635;55.812;37.560;2023-05-23T09:36:16;99773.13;;;24.03;48.43
34370;BME280;20635;55.812;37.560;2023-05-23T09:38:42;99773.94;;;24.04;48.38
34370;BME280;20635;55.812;37.560;2023-05-23T09:41:09;99774.75;;;24.04;48.22
34370;BME280;20635;55.812;37.560;2023-05-23T09:43:39;99780.34;;;24.04;48.37
34370;BME280;20635;55.812;37.560;2023-05-23T09:46:09;99783.97;;;24.05;48.40
34370;BME280;20635;55.812;37.560;2023-05-23T09:48:35;99775.56;;;24.05;48.24
34370;BME280;20635;55.812;37.560;2023-05-23T09:51:08;99775.56;;;24.05;48.27
34370;BME280;20635;55.812;37.560;2023-05-23T09:53:34;99787.59;;;24.05;48.47
34370;BME280;20635;55.812;37.560;2023-05-23T09:56:02;99782.00;;;24.05;48.25
34370;BME280;20635;55.812;37.560;2023-05-23T09:58:28;99785.63;;;24.06;48.15
34370;BME280;20635;55.812;37.560;2023-05-23T10:00:57;99787.59;;;24.05;48.18
34370;BME280;20635;55.812;37.560;2023-05-23T10:03:32;99788.41;;;24.06;48.13
34370;BME280;20635;55.812;37.560;2023-05-23T10:05:59;99792.03;;;24.07;48.29
34370;BME280;20635;55.812;37.560;2023-05-23T10:08:35;99783.66;;;24.07;48.21
34370;BME280;20635;55.812;37.560;2023-05-23T10:13:32;99796.53;;;24.08;48.05
34370;BME280;20635;55.812;37.560;2023-05-23T10:15:59;99787.25;;;24.07;48.17
34370;BME280;20635;55.812;37.560;2023-05-23T10:18:30;99789.25;;;24.07;48.19
34370;BME280;20635;55.812;37.560;2023-05-23T10:21:00;99783.66;;;24.07;48.09
34370;BME280;20635;55.812;37.560;2023-05-23T10:23:29;99788.13;;;24.08;48.19
34370;BME280;20635;55.812;37.560;2023-05-23T10:25:55;99789.25;;;24.07;48.22
34370;BME280;20635;55.812;37.560;2023-05-23T10:28:21;99789.25;;;24.07;48.18
34370;BME280;20635;55.812;37.560;2023-05-23T10:30:48;99790.06;;;24.07;48.40
34370;BME280;20635;55.812;37.560;2023-05-23T10:33:15;99784.47;;;24.07;48.24
34370;BME280;20635;55.812;37.560;2023-05-23T10:36:03;99785.31;;;24.08;48.02
34370;BME280;20635;55.812;37.560;2023-05-23T10:38:45;99784.47;;;24.07;48.15
34370;BME280;20635;55.812;37.560;2023-05-23T10:41:59;99794.53;;;24.08;47.98
34370;BME280;20635;55.812;37.560;2023-05-23T10:44:08;99787.25;;;24.07;48.13
34370;BME280;20635;55.812;37.560;2023-05-23T10:46:51;99799.31;;;24.08;48.12
34370;BME280;20635;55.812;37.560;2023-05-23T10:52:07;99799.63;;;24.06;48.14
34370;BME280;20635;55.812;37.560;2023-05-23T10:54:33;99796.53;;;24.08;47.91
34370;BME280;20635;55.812;37.560;2023-05-23T10:57:03;99799.31;;;24.08;48.09
34370;BME280;20635;55.812;37.560;2023-05-23T10:59:29;99794.84;;;24.07;48.04
34370;BME280;20635;55.812;37.560;2023-05-23T11:01:55;99789.75;;;24.09;48.18
34370;BME280;20635;55.812;37.560;2023-05-23T11:04:24;99793.72;;;24.08;48.28
34370;BME280;20635;55.812;37.560;2023-05-23T11:06:52;99796.53;;;24.08;48.05
34370;BME280;20635;55.812;37.560;2023-05-23T11:09:21;99797.34;;;24.08;48.09
34370;BME280;20635;55.812;37.560;2023-05-23T11:14:30;99796.00;;;24.05;48.02
34370;BME280;20635;55.812;37.560;2023-05-23T11:16:56;99793.19;;;24.05;47.86
34370;BME280;20635;55.812;37.560;2023-05-23T11:19:23;99793.19;;;24.05;48.01
34370;BME280;20635;55.812;37.560;2023-05-23T11:22:00;99784.78;;;24.05;48.05
34370;BME280;20635;55.812;37.560;2023-05-23T11:27:10;99785.97;;;24.04;48.07
34370;BME280;20635;55.812;37.560;2023-05-23T11:29:37;99795.50;;;24.03;47.96
34370;BME280;20635;55.812;37.560;2023-05-23T11:32:09;99791.56;;;24.04;48.06
34370;BME280;20635;55.812;37.560;2023-05-23T11:34:37;99789.91;;;24.03;47.84
34370;BME280;20635;55.812;37.560;2023-05-23T11:37:02;99799.13;;;24.04;48.22
34370;BME280;20635;55.812;37.560;2023-05-23T11:39:28;99805.03;;;24.02;47.96
34370;BME280;20635;55.812;37.560;2023-05-23T11:41:58;99808.69;;;24.03;47.83
34370;BME280;20635;55.812;37.560;2023-05-23T11:44:24;99805.88;;;24.03;47.92
34370;BME280;20635;55.812;37.560;2023-05-23T11:46:59;99801.41;;;24.02;47.84
34370;BME280;20635;55.812;37.560;2023-05-23T11:49:29;99802.22;;;24.02;47.92
34370;BME280;20635;55.812;37.560;2023-05-23T11:51:56;99804.22;;;24.02;47.97
34370;BME280;20635;55.812;37.560;2023-05-23T11:54:25;99796.97;;;24.01;47.85
34370;BME280;20635;55.812;37.560;2023-05-23T11:56:51;99796.97;;;24.01;47.97
34370;BME280;20635;55.812;37.560;2023-05-23T11:59:17;99795.31;;;24.00;47.93
34370;BME280;20635;55.812;37.560;2023-05-23T12:01:43;99798.13;;;24.00;47.99
34370;BME280;20635;55.812;37.560;2023-05-23T12:04:09;99796.97;;;24.01;47.99
34370;BME280;20635;55.812;37.560;2023-05-23T12:06:37;99800.91;;;24.00;48.15
34370;BME280;20635;55.812;37.560;2023-05-23T12:09:04;99792.84;;;23.98;48.00
34370;BME280;20635;55.812;37.560;2023-05-23T12:11:35;99787.25;;;23.98;47.86
34370;BME280;20635;55.812;37.560;2023-05-23T12:14:01;99790.03;;;23.98;47.95
34370;BME280;20635;55.812;37.560;2023-05-23T12:16:31;99792.00;;;23.98;47.98
34370;BME280;20635;55.812;37.560;2023-05-23T12:18:58;99787.25;;;23.98;47.80
34370;BME280;20635;55.812;37.560;2023-05-23T12:21:24;99787.25;;;23.98;47.97
34370;BME280;20635;55.812;37.560;2023-05-23T12:23:51;99777.19;;;23.97;47.91
34370;BME280;20635;55.812;37.560;2023-05-23T12:26:16;99775.19;;;23.98;48.16
34370;BME280;20635;55.812;37.560;2023-05-23T12:28:43;99773.25;;;23.98;47.85
34370;BME280;20635;55.812;37.560;2023-05-23T12:31:15;99771.56;;;23.97;47.88
34370;BME280;20635;55.812;37.560;2023-05-23T12:33:41;99773.25;;;23.98;47.87
34370;BME280;20635;55.812;37.560;2023-05-23T12:36:10;99773.56;;;23.97;47.75
34370;BME280;20635;55.812;37.560;2023-05-23T12:38:36;99768.78;;;23.97;47.87
34370;BME280;20635;55.812;37.560;2023-05-23T12:41:21;99761.19;;;23.98;47.96
34370;BME280;20635;55.812;37.560;2023-05-23T12:43:50;99755.59;;;23.98;47.68
34370;BME280;20635;55.812;37.560;2023-05-23T12:46:17;99748.38;;;23.97;47.82
34370;BME280;20635;55.812;37.560;2023-05-23T12:48:43;99756.47;;;23.98;47.87
34370;BME280;20635;55.812;37.560;2023-05-23T12:51:09;99750.88;;;23.98;47.73
34370;BME280;20635;55.812;37.560;2023-05-23T12:53:35;99739.97;;;23.97;47.72
34370;BME280;20635;55.812;37.560;2023-05-23T12:56:00;99750.00;;;23.98;47.70
34370;BME280;20635;55.812;37.560;2023-05-23T12:58:26;99750.88;;;23.98;47.88
34370;BME280;20635;55.812;37.560;2023-05-23T13:00:53;99755.94;;;23.96;47.78
34370;BME280;20635;55.812;37.560;2023-05-23T13:03:19;99742.47;;;23.98;48.06
34370;BME280;20635;55.812;37.560;2023-05-23T13:05:44;99735.19;;;23.97;47.76
34370;BME280;20635;55.812;37.560;2023-05-23T13:08:10;99733.22;;;23.98;47.92
34370;BME280;20635;55.812;37.560;2023-05-23T13:10:37;99731.28;;;23.98;47.78
34370;BME280;20635;55.812;37.560;2023-05-23T13:13:03;99731.28;;;23.98;47.72